sensor_id;sensor_type;location;lat;lon;timestamp;pressure;altitude;pressure_sealevel;temperature;humidity
7337;BME280;54510;42.016;23.098;2023-04-15T00:00:14;-21384.56;;;9.08;77.96
7337;BME280;54510;42.016;23.098;2023-04-15T00:02:39;-21386.22;;;9.15;77.51
7337;BME280;54510;42.016;23.098;2023-04-15T00:05:05;-21382.06;;;8.99;76.33
7337;BME280;54510;42.016;23.098;2023-04-15T00:07:30;-21380.25;;;8.93;76.17
7337;BME280;54510;42.016;23.098;2023-04-15T00:09:56;-21380.53;;;8.94;75.81
7337;BME280;54510;42.016;23.098;2023-04-15T00:12:22;-21378.44;;;8.86;76.03
7337;BME280;54510;42.016;23.098;2023-04-15T00:14:47;-21380.53;;;8.94;75.20
7337;BME280;54510;42.016;23.098;2023-04-15T00:17:13;-21382.75;;;9.02;75.49
7337;BME280;54510;42.016;23.098;2023-04-15T00:19:38;-21390.13;;;9.29;75.38
7337;BME280;54510;42.016;23.098;2023-04-15T00:22:04;-21389.84;;;9.28;74.52
7337;BME280;54510;42.016;23.098;2023-04-15T00:24:30;-21387.50;;;9.19;74.67
7337;BME280;54510;42.016;23.098;2023-04-15T00:26:55;-21389.72;;;9.27;74.58
7337;BME280;54510;42.016;23.098;2023-04-15T00:29:21;-21383.88;;;9.06;74.67
7337;BME280;54510;42.016;23.098;2023-04-15T00:31:46;-21379.56;;;8.90;75.30
7337;BME280;54510;42.016;23.098;2023-04-15T00:34:11;-21384.16;;;9.07;75.81
7337;BME280;54510;42.016;23.098;2023-04-15T00:36:36;-21389.28;;;9.26;75.51
7337;BME280;54510;42.016;23.098;2023-04-15T00:39:02;-21390.69;;;9.31;75.14
7337;BME280;54510;42.016;23.098;2023-04-15T00:41:28;-21392.34;;;9.37;75.20
7337;BME280;54510;42.016;23.098;2023-04-15T00:43:54;-21394.16;;;9.43;74.86
7337;BME280;54510;42.016;23.098;2023-04-15T00:46:19;-21379.56;;;8.90;75.25
7337;BME280;54510;42.016;23.098;2023-04-15T00:48:45;-21383.31;;;9.04;75.69
7337;BME280;54510;42.016;23.098;2023-04-15T00:51:11;-21374.41;;;8.71;77.04
7337;BME280;54510;42.016;23.098;2023-04-15T00:53:37;-21377.06;;;8.81;76.69
7337;BME280;54510;42.016;23.098;2023-04-15T00:56:02;-21385.41;;;9.11;76.41
7337;BME280;54510;42.016;23.098;2023-04-15T00:58:27;-21389.84;;;9.28;75.98
7337;BME280;54510;42.016;23.098;2023-04-15T01:00:54;-21395.41;;;9.48;75.47
7337;BME280;54510;42.016;23.098;2023-04-15T01:03:19;-21398.31;;;9.59;74.94
7337;BME280;54510;42.016;23.098;2023-04-15T01:05:45;-21398.06;;;9.58;74.68
7337;BME280;54510;42.016;23.098;2023-04-15T01:08:10;-21401.13;;;9.69;74.92
7337;BME280;54510;42.016;23.098;2023-04-15T01:10:35;-21400.00;;;9.65;74.23
7337;BME280;54510;42.016;23.098;2023-04-15T01:13:02;-21394.84;;;9.46;74.95
7337;BME280;54510;42.016;23.098;2023-04-15T01:15:27;-21392.50;;;9.37;74.87
7337;BME280;54510;42.016;23.098;2023-04-15T01:17:52;-21394.56;;;9.45;75.39
7337;BME280;54510;42.016;23.098;2023-04-15T01:20:18;-21397.34;;;9.55;74.51
7337;BME280;54510;42.016;23.098;2023-04-15T01:22:44;-21394.56;;;9.45;74.45
7337;BME280;54510;42.016;23.098;2023-04-15T01:25:10;-21386.22;;;9.15;74.52
7337;BME280;54510;42.016;23.098;2023-04-15T01:27:39;-21383.88;;;9.06;75.56
7337;BME280;54510;42.016;23.098;2023-04-15T01:30:06;-21378.03;;;8.85;75.21
7337;BME280;54510;42.016;23.098;2023-04-15T01:32:32;-21380.25;;;8.93;75.43
7337;BME280;54510;42.016;23.098;2023-04-15T01:34:57;-21382.47;;;9.01;74.87
7337;BME280;54510;42.016;23.098;2023-04-15T01:37:22;-21376.50;;;8.79;75.00
7337;BME280;54510;42.016;23.098;2023-04-15T01:39:48;-21376.09;;;8.78;75.36
7337;BME280;54510;42.016;23.098;2023-04-15T01:42:13;-21376.50;;;8.79;74.98
7337;BME280;54510;42.016;23.098;2023-04-15T01:44:38;-21378.72;;;8.87;75.50
7337;BME280;54510;42.016;23.098;2023-04-15T01:47:03;-21377.34;;;8.82;74.79
7337;BME280;54510;42.016;23.098;2023-04-15T01:49:29;-21379.84;;;8.91;76.00
7337;BME280;54510;42.016;23.098;2023-04-15T01:51:55;-21384.69;;;9.09;75.41
7337;BME280;54510;42.016;23.098;2023-04-15T01:54:20;-21390.13;;;9.29;74.81
7337;BME280;54510;42.016;23.098;2023-04-15T01:56:45;-21390.69;;;9.31;73.92
7337;BME280;54510;42.016;23.098;2023-04-15T01:59:11;-21387.34;;;9.19;73.92
7337;BME280;54510;42.016;23.098;2023-04-15T02:01:36;-21385.25;;;9.11;74.11
7337;BME280;54510;42.016;23.098;2023-04-15T02:04:02;-21386.50;;;9.16;74.09
7337;BME280;54510;42.016;23.098;2023-04-15T02:06:27;-21382.63;;;9.01;74.65
7337;BME280;54510;42.016;23.098;2023-04-15T02:08:52;-21381.22;;;8.96;75.21
7337;BME280;54510;42.016;23.098;2023-04-15T02:11:18;-21380.94;;;8.95;75.09
7337;BME280;54510;42.016;23.098;2023-04-15T02:13:43;-21382.63;;;9.01;74.98
7337;BME280;54510;42.016;23.098;2023-04-15T02:16:18;-21388.47;;;9.23;74.60
7337;BME280;54510;42.016;23.098;2023-04-15T02:18:44;-21393.19;;;9.40;74.12
7337;BME280;54510;42.016;23.098;2023-04-15T02:21:09;-21391.09;;;9.32;74.22
7337;BME280;54510;42.016;23.098;2023-04-15T02:23:34;-21394.56;;;9.45;74.35
7337;BME280;54510;42.016;23.098;2023-04-15T02:26:00;-21396.38;;;9.51;74.29
7337;BME280;54510;42.016;23.098;2023-04-15T02:28:25;-21397.34;;;9.55;73.89
7337;BME280;54510;42.016;23.098;2023-04-15T02:30:51;-21391.53;;;9.34;74.30
7337;BME280;54510;42.016;23.098;2023-04-15T02:33:18;-21392.50;;;9.37;74.32
7337;BME280;54510;42.016;23.098;2023-04-15T02:35:43;-21391.25;;;9.33;74.62
7337;BME280;54510;42.016;23.098;2023-04-15T02:38:09;-21394.44;;;9.44;74.45
7337;BME280;54510;42.016;23.098;2023-04-15T02:40:35;-21392.22;;;9.36;73.34
7337;BME280;54510;42.016;23.098;2023-04-15T02:43:00;-21387.22;;;9.18;73.84
7337;BME280;54510;42.016;23.098;2023-04-15T02:45:26;-21384.97;;;9.10;74.46
7337;BME280;54510;42.016;23.098;2023-04-15T02:47:52;-21382.34;;;9.00;74.84
7337;BME280;54510;42.016;23.098;2023-04-15T02:50:17;-21387.63;;;9.20;74.92
7337;BME280;54510;42.016;23.098;2023-04-15T02:52:42;-21386.22;;;9.15;74.58
7337;BME280;54510;42.016;23.098;2023-04-15T02:55:08;-21380.94;;;8.95;75.06
7337;BME280;54510;42.016;23.098;2023-04-15T02:57:34;-21378.59;;;8.87;75.11
7337;BME280;54510;42.016;23.098;2023-04-15T03:00:01;-21374.41;;;8.71;75.47
7337;BME280;54510;42.016;23.098;2023-04-15T03:02:27;-21375.09;;;8.74;75.44
7337;BME280;54510;42.016;23.098;2023-04-15T03:04:57;-21377.75;;;8.84;75.51
7337;BME280;54510;42.016;23.098;2023-04-15T03:07:22;-21381.09;;;8.96;75.65
7337;BME280;54510;42.016;23.098;2023-04-15T03:09:47;-21379.84;;;8.91;76.15
7337;BME280;54510;42.016;23.098;2023-04-15T03:12:13;-21379.41;;;8.90;75.94
7337;BME280;54510;42.016;23.098;2023-04-15T03:14:38;-21371.22;;;8.60;77.45
7337;BME280;54510;42.016;23.098;2023-04-15T03:17:03;-21372.19;;;8.63;77.33
7337;BME280;54510;42.016;23.098;2023-04-15T03:19:28;-21376.78;;;8.80;77.32
7337;BME280;54510;42.016;23.098;2023-04-15T03:21:54;-21377.19;;;8.82;76.59
7337;BME280;54510;42.016;23.098;2023-04-15T03:24:19;-21376.22;;;8.78;76.61
7337;BME280;54510;42.016;23.098;2023-04-15T03:26:44;-21370.25;;;8.56;77.34
7337;BME280;54510;42.016;23.098;2023-04-15T03:29:10;-21367.59;;;8.47;77.03
7337;BME280;54510;42.016;23.098;2023-04-15T03:31:35;-21368.84;;;8.51;77.78
7337;BME280;54510;42.016;23.098;2023-04-15T03:34:00;-21368.44;;;8.50;77.56
7337;BME280;54510;42.016;23.098;2023-04-15T03:36:27;-21367.44;;;8.46;77.23
7337;BME280;54510;42.016;23.098;2023-04-15T03:38:53;-21363.69;;;8.32;77.71
7337;BME280;54510;42.016;23.098;2023-04-15T03:41:19;-21365.91;;;8.41;77.61
7337;BME280;54510;42.016;23.098;2023-04-15T03:43:44;-21366.19;;;8.42;78.12
7337;BME280;54510;42.016;23.098;2023-04-15T03:46:09;-21365.50;;;8.39;77.85
7337;BME280;54510;42.016;23.098;2023-04-15T03:48:35;-21364.94;;;8.37;77.80
7337;BME280;54510;42.016;23.098;2023-04-15T03:51:00;-21367.88;;;8.48;77.34
7337;BME280;54510;42.016;23.098;2023-04-15T03:53:26;-21367.31;;;8.46;77.86
7337;BME280;54510;42.016;23.098;2023-04-15T03:55:51;-21369.97;;;8.55;77.68
7337;BME280;54510;42.016;23.098;2023-04-15T03:58:16;-21370.38;;;8.57;77.08
7337;BME280;54510;42.016;23.098;2023-04-15T04:00:42;-21373.84;;;8.69;77.72
7337;BME280;54510;42.016;23.098;2023-04-15T04:03:08;-21372.47;;;8.64;76.86
7337;BME280;54510;42.016;23.098;2023-04-15T04:05:33;-21369.00;;;8.52;77.25
7337;BME280;54510;42.016;23.098;2023-04-15T04:08:01;-21369.00;;;8.52;77.44
7337;BME280;54510;42.016;23.098;2023-04-15T04:10:26;-21367.59;;;8.47;77.38
7337;BME280;54510;42.016;23.098;2023-04-15T04:12:51;-21362.44;;;8.28;76.86
7337;BME280;54510;42.016;23.098;2023-04-15T04:15:17;-21363.97;;;8.33;77.10
7337;BME280;54510;42.016;23.098;2023-04-15T04:17:42;-21360.34;;;8.20;76.61
7337;BME280;54510;42.016;23.098;2023-04-15T04:20:07;-21358.25;;;8.13;76.94
7337;BME280;54510;42.016;23.098;2023-04-15T04:22:42;-21357.56;;;8.10;77.11
7337;BME280;54510;42.016;23.098;2023-04-15T04:25:07;-21356.16;;;8.05;76.80
7337;BME280;54510;42.016;23.098;2023-04-15T04:27:33;-21346.72;;;7.71;78.04
7337;BME280;54510;42.016;23.098;2023-04-15T04:29:58;-21345.59;;;7.67;79.12
7337;BME280;54510;42.016;23.098;2023-04-15T04:32:23;-21354.78;;;8.00;77.31
7337;BME280;54510;42.016;23.098;2023-04-15T04:34:49;-21352.56;;;7.92;77.48
7337;BME280;54510;42.016;23.098;2023-04-15T04:37:14;-21353.94;;;7.97;77.26
7337;BME280;54510;42.016;23.098;2023-04-15T04:39:40;-21362.31;;;8.27;77.56
7337;BME280;54510;42.016;23.098;2023-04-15T04:42:05;-21364.66;;;8.36;76.64
7337;BME280;54510;42.016;23.098;2023-04-15T04:44:30;-21362.44;;;8.28;76.52
7337;BME280;54510;42.016;23.098;2023-04-15T04:46:55;-21359.66;;;8.18;76.63
7337;BME280;54510;42.016;23.098;2023-04-15T04:49:21;-21360.06;;;8.19;76.71
7337;BME280;54510;42.016;23.098;2023-04-15T04:51:46;-21362.84;;;8.29;77.06
7337;BME280;54510;42.016;23.098;2023-04-15T04:54:12;-21363.84;;;8.33;76.88
7337;BME280;54510;42.016;23.098;2023-04-15T04:56:37;-21364.25;;;8.35;76.51
7337;BME280;54510;42.016;23.098;2023-04-15T04:59:04;-21365.91;;;8.41;76.37
7337;BME280;54510;42.016;23.098;2023-04-15T05:01:29;-21367.03;;;8.45;75.84
7337;BME280;54510;42.016;23.098;2023-04-15T05:03:54;-21366.63;;;8.43;76.41
7337;BME280;54510;42.016;23.098;2023-04-15T05:06:20;-21370.09;;;8.56;76.43
7337;BME280;54510;42.016;23.098;2023-04-15T05:08:46;-21372.47;;;8.64;76.15
7337;BME280;54510;42.016;23.098;2023-04-15T05:11:11;-21373.28;;;8.67;75.52
7337;BME280;54510;42.016;23.098;2023-04-15T05:13:37;-21380.81;;;8.95;75.74
7337;BME280;54510;42.016;23.098;2023-04-15T05:16:03;-21386.50;;;9.16;75.28
7337;BME280;54510;42.016;23.098;2023-04-15T05:18:29;-21387.91;;;9.21;74.91
7337;BME280;54510;42.016;23.098;2023-04-15T05:20:54;-21390.69;;;9.31;74.21
7337;BME280;54510;42.016;23.098;2023-04-15T05:23:19;-21391.38;;;9.33;74.20
7337;BME280;54510;42.016;23.098;2023-04-15T05:25:45;-21391.53;;;9.34;74.58
7337;BME280;54510;42.016;23.098;2023-04-15T05:28:10;-21395.28;;;9.47;74.88
7337;BME280;54510;42.016;23.098;2023-04-15T05:30:35;-21399.56;;;9.63;74.41
7337;BME280;54510;42.016;23.098;2023-04-15T05:33:00;-21401.25;;;9.69;74.08
7337;BME280;54510;42.016;23.098;2023-04-15T05:35:26;-21404.03;;;9.79;73.60
7337;BME280;54510;42.016;23.098;2023-04-15T05:37:51;-21405.69;;;9.85;73.86
7337;BME280;54510;42.016;23.098;2023-04-15T05:40:17;-21404.03;;;9.79;73.38
7337;BME280;54510;42.016;23.098;2023-04-15T05:42:42;-21404.88;;;9.82;73.10
7337;BME280;54510;42.016;23.098;2023-04-15T05:45:08;-21401.53;;;9.70;73.70
7337;BME280;54510;42.016;23.098;2023-04-15T05:47:34;-21407.09;;;9.90;74.21
7337;BME280;54510;42.016;23.098;2023-04-15T05:50:00;-21407.91;;;9.94;73.68
7337;BME280;54510;42.016;23.098;2023-04-15T05:52:26;-21410.13;;;10.02;74.33
7337;BME280;54510;42.016;23.098;2023-04-15T05:54:51;-21410.97;;;10.05;73.55
7337;BME280;54510;42.016;23.098;2023-04-15T05:57:17;-21409.03;;;9.98;73.92
7337;BME280;54510;42.016;23.098;2023-04-15T05:59:42;-21408.47;;;9.96;74.22
7337;BME280;54510;42.016;23.098;2023-04-15T06:02:08;-21410.97;;;10.05;75.13
7337;BME280;54510;42.016;23.098;2023-04-15T06:04:34;-21413.63;;;10.14;74.91
7337;BME280;54510;42.016;23.098;2023-04-15T06:06:59;-21417.78;;;10.29;74.00
7337;BME280;54510;42.016;23.098;2023-04-15T06:09:25;-21418.75;;;10.33;73.62
7337;BME280;54510;42.016;23.098;2023-04-15T06:11:51;-21422.38;;;10.46;73.73
7337;BME280;54510;42.016;23.098;2023-04-15T06:14:16;-21424.88;;;10.55;73.27
7337;BME280;54510;42.016;23.098;2023-04-15T06:16:41;-21427.91;;;10.66;73.22
7337;BME280;54510;42.016;23.098;2023-04-15T06:19:07;-21431.53;;;10.80;72.53
7337;BME280;54510;42.016;23.098;2023-04-15T06:21:32;-21431.81;;;10.81;72.76
7337;BME280;54510;42.016;23.098;2023-04-15T06:23:58;-21437.78;;;11.02;72.46
7337;BME280;54510;42.016;23.098;2023-04-15T06:26:25;-21435.28;;;10.93;72.11
7337;BME280;54510;42.016;23.098;2023-04-15T06:28:54;-21437.63;;;11.02;72.86
7337;BME280;54510;42.016;23.098;2023-04-15T06:31:19;-21439.03;;;11.07;72.25
7337;BME280;54510;42.016;23.098;2023-04-15T06:33:45;-21441.09;;;11.15;72.16
7337;BME280;54510;42.016;23.098;2023-04-15T06:36:16;-21444.16;;;11.26;72.21
7337;BME280;54510;42.016;23.098;2023-04-15T06:38:41;-21446.22;;;11.33;71.81
7337;BME280;54510;42.016;23.098;2023-04-15T06:41:06;-21451.09;;;11.51;71.30
7337;BME280;54510;42.016;23.098;2023-04-15T06:43:32;-21455.94;;;11.69;71.33
7337;BME280;54510;42.016;23.098;2023-04-15T06:45:57;-21460.66;;;11.86;71.02
7337;BME280;54510;42.016;23.098;2023-04-15T06:48:23;-21477.28;;;12.47;69.45
7337;BME280;54510;42.016;23.098;2023-04-15T06:50:48;-21483.66;;;12.70;68.30
7337;BME280;54510;42.016;23.098;2023-04-15T06:53:14;-21490.31;;;12.94;67.66
7337;BME280;54510;42.016;23.098;2023-04-15T06:55:39;-21496.41;;;13.17;67.08
7337;BME280;54510;42.016;23.098;2023-04-15T06:58:05;-21499.84;;;13.29;66.57
7337;BME280;54510;42.016;23.098;2023-04-15T07:00:31;-21504.13;;;13.45;65.99
7337;BME280;54510;42.016;23.098;2023-04-15T07:02:57;-21506.78;;;13.55;66.06
7337;BME280;54510;42.016;23.098;2023-04-15T07:05:23;-21509.53;;;13.65;65.16
7337;BME280;54510;42.016;23.098;2023-04-15T07:07:49;-21514.50;;;13.83;65.10
7337;BME280;54510;42.016;23.098;2023-04-15T07:10:15;-21524.31;;;14.19;64.69
7337;BME280;54510;42.016;23.098;2023-04-15T07:12:41;-21532.47;;;14.49;64.37
7337;BME280;54510;42.016;23.098;2023-04-15T07:15:06;-21540.22;;;14.77;63.92
7337;BME280;54510;42.016;23.098;2023-04-15T07:17:31;-21546.03;;;14.98;63.51
7337;BME280;54510;42.016;23.098;2023-04-15T07:19:57;-21545.59;;;14.97;63.92
7337;BME280;54510;42.016;23.098;2023-04-15T07:22:22;-21554.56;;;15.30;63.27
7337;BME280;54510;42.016;23.098;2023-04-15T07:24:48;-21566.59;;;15.74;63.25
7337;BME280;54510;42.016;23.098;2023-04-15T07:27:13;-21579.00;;;16.19;62.58
7337;BME280;54510;42.016;23.098;2023-04-15T07:29:38;-21584.09;;;16.38;63.00
7337;BME280;54510;42.016;23.098;2023-04-15T07:32:04;-21587.25;;;16.50;62.74
7337;BME280;54510;42.016;23.098;2023-04-15T07:34:29;-21591.13;;;16.64;62.40
7337;BME280;54510;42.016;23.098;2023-04-15T07:36:55;-21591.41;;;16.65;62.69
7337;BME280;54510;42.016;23.098;2023-04-15T07:39:20;-21590.84;;;16.63;63.96
7337;BME280;54510;42.016;23.098;2023-04-15T07:41:45;-21597.72;;;16.88;62.36
7337;BME280;54510;42.016;23.098;2023-04-15T07:44:11;-21597.59;;;16.88;62.33
7337;BME280;54510;42.016;23.098;2023-04-15T07:46:36;-21596.34;;;16.83;62.87
7337;BME280;54510;42.016;23.098;2023-04-15T07:49:02;-21596.91;;;16.85;63.95
7337;BME280;54510;42.016;23.098;2023-04-15T07:51:27;-21590.72;;;16.63;63.08
7337;BME280;54510;42.016;23.098;2023-04-15T07:53:53;-21595.94;;;16.82;62.75
7337;BME280;54510;42.016;23.098;2023-04-15T07:56:19;-21597.59;;;16.88;62.15
7337;BME280;54510;42.016;23.098;2023-04-15T07:58:44;-21602.41;;;17.06;62.58
7337;BME280;54510;42.016;23.098;2023-04-15T08:01:10;-21616.47;;;17.57;61.17
7337;BME280;54510;42.016;23.098;2023-04-15T08:03:35;-21621.41;;;17.75;58.23
7337;BME280;54510;42.016;23.098;2023-04-15T08:06:01;-21606.28;;;17.20;58.30
7337;BME280;54510;42.016;23.098;2023-04-15T08:08:26;-21609.16;;;17.30;57.67
7337;BME280;54510;42.016;23.098;2023-04-15T08:10:52;-21617.84;;;17.62;52.33
7337;BME280;54510;42.016;23.098;2023-04-15T08:13:17;-21636.13;;;18.30;49.02
7337;BME280;54510;42.016;23.098;2023-04-15T08:15:42;-21642.72;;;18.54;45.62
7337;BME280;54510;42.016;23.098;2023-04-15T08:18:08;-21647.81;;;18.73;45.88
7337;BME280;54510;42.016;23.098;2023-04-15T08:20:33;-21651.66;;;18.87;43.94
7337;BME280;54510;42.016;23.098;2023-04-15T08:22:58;-21650.28;;;18.82;41.81
7337;BME280;54510;42.016;23.098;2023-04-15T08:25:23;-21651.66;;;18.87;41.93
7337;BME280;54510;42.016;23.098;2023-04-15T08:27:49;-21651.78;;;18.87;41.90
7337;BME280;54510;42.016;23.098;2023-04-15T08:30:14;-21661.53;;;19.23;40.43
7337;BME280;54510;42.016;23.098;2023-04-15T08:32:41;-21658.78;;;19.13;39.81
7337;BME280;54510;42.016;23.098;2023-04-15T08:35:06;-21661.00;;;19.21;39.04
7337;BME280;54510;42.016;23.098;2023-04-15T08:37:32;-21661.28;;;19.22;39.84
7337;BME280;54510;42.016;23.098;2023-04-15T08:39:57;-21660.16;;;19.18;40.56
7337;BME280;54510;42.016;23.098;2023-04-15T08:42:23;-21675.97;;;19.77;40.41
7337;BME280;54510;42.016;23.098;2023-04-15T08:44:51;-21669.38;;;19.52;38.38
7337;BME280;54510;42.016;23.098;2023-04-15T08:47:18;-21674.31;;;19.70;39.16
7337;BME280;54510;42.016;23.098;2023-04-15T08:49:44;-21674.03;;;19.69;38.08
7337;BME280;54510;42.016;23.098;2023-04-15T08:52:12;-21676.09;;;19.77;38.26
7337;BME280;54510;42.016;23.098;2023-04-15T08:54:38;-21670.75;;;19.57;35.90
7337;BME280;54510;42.016;23.098;2023-04-15T08:57:03;-21676.78;;;19.80;36.50
7337;BME280;54510;42.016;23.098;2023-04-15T08:59:29;-21680.91;;;19.95;36.89
7337;BME280;54510;42.016;23.098;2023-04-15T09:01:55;-21686.50;;;20.16;36.39
7337;BME280;54510;42.016;23.098;2023-04-15T09:04:21;-21669.78;;;19.54;34.62
7337;BME280;54510;42.016;23.098;2023-04-15T09:06:46;-21684.88;;;20.09;32.86
7337;BME280;54510;42.016;23.098;2023-04-15T09:09:11;-21687.63;;;20.20;33.61
7337;BME280;54510;42.016;23.098;2023-04-15T09:11:38;-21686.38;;;20.15;32.62
7337;BME280;54510;42.016;23.098;2023-04-15T09:14:03;-21685.84;;;20.13;33.39
7337;BME280;54510;42.016;23.098;2023-04-15T09:16:28;-21697.06;;;20.55;34.91
7337;BME280;54510;42.016;23.098;2023-04-15T09:18:54;-21695.28;;;20.48;34.30
7337;BME280;54510;42.016;23.098;2023-04-15T09:21:19;-21692.00;;;20.36;34.44
7337;BME280;54510;42.016;23.098;2023-04-15T09:23:55;-21690.22;;;20.29;33.65
7337;BME280;54510;42.016;23.098;2023-04-15T09:26:31;-21702.41;;;20.74;33.26
7337;BME280;54510;42.016;23.098;2023-04-15T09:29:03;-21693.25;;;20.40;32.04
7337;BME280;54510;42.016;23.098;2023-04-15T09:31:28;-21694.19;;;20.44;32.95
7337;BME280;54510;42.016;23.098;2023-04-15T09:33:54;-21684.59;;;20.08;31.13
7337;BME280;54510;42.016;23.098;2023-04-15T09:36:21;-21688.16;;;20.22;32.23
7337;BME280;54510;42.016;23.098;2023-04-15T09:38:55;-21691.19;;;20.33;32.84
7337;BME280;54510;42.016;23.098;2023-04-15T09:41:21;-21688.31;;;20.22;31.65
7337;BME280;54510;42.016;23.098;2023-04-15T09:43:47;-21689.94;;;20.28;34.44
7337;BME280;54510;42.016;23.098;2023-04-15T09:46:12;-21704.06;;;20.80;33.98
7337;BME280;54510;42.016;23.098;2023-04-15T09:48:37;-21711.47;;;21.08;32.08
7337;BME280;54510;42.016;23.098;2023-04-15T09:51:03;-21707.91;;;20.95;32.62
7337;BME280;54510;42.016;23.098;2023-04-15T09:53:28;-21708.59;;;20.97;33.13
7337;BME280;54510;42.016;23.098;2023-04-15T09:55:57;-21699.97;;;20.65;33.03
7337;BME280;54510;42.016;23.098;2023-04-15T09:58:26;-21709.00;;;20.99;32.99
7337;BME280;54510;42.016;23.098;2023-04-15T10:00:53;-21707.75;;;20.94;32.76
7337;BME280;54510;42.016;23.098;2023-04-15T10:03:22;-21705.72;;;20.86;31.72
7337;BME280;54510;42.016;23.098;2023-04-15T10:05:48;-21706.25;;;20.88;31.94
7337;BME280;54510;42.016;23.098;2023-04-15T10:08:23;-21722.97;;;21.50;32.94
7337;BME280;54510;42.016;23.098;2023-04-15T10:10:50;-21736.09;;;21.99;32.65
7337;BME280;54510;42.016;23.098;2023-04-15T10:13:19;-21727.06;;;21.65;30.94
7337;BME280;54510;42.016;23.098;2023-04-15T10:15:59;-21736.50;;;22.00;30.44
7337;BME280;54510;42.016;23.098;2023-04-15T10:18:25;-21728.28;;;21.70;32.36
7337;BME280;54510;42.016;23.098;2023-04-15T10:20:51;-21746.75;;;22.38;31.33
7337;BME280;54510;42.016;23.098;2023-04-15T10:23:16;-21742.53;;;22.23;31.47
7337;BME280;54510;42.016;23.098;2023-04-15T10:25:43;-21739.38;;;22.11;31.13
7337;BME280;54510;42.016;23.098;2023-04-15T10:28:09;-21740.88;;;22.17;31.33
7337;BME280;54510;42.016;23.098;2023-04-15T10:30:35;-21718.84;;;21.35;31.19
7337;BME280;54510;42.016;23.098;2023-04-15T10:33:00;-21721.72;;;21.46;32.05
7337;BME280;54510;42.016;23.098;2023-04-15T10:35:27;-21745.53;;;22.34;31.20
7337;BME280;54510;42.016;23.098;2023-04-15T10:37:53;-21753.72;;;22.64;30.11
7337;BME280;54510;42.016;23.098;2023-04-15T10:42:56;-21742.81;;;22.24;30.37
7337;BME280;54510;42.016;23.098;2023-04-15T10:45:24;-21743.75;;;22.27;30.19
7337;BME280;54510;42.016;23.098;2023-04-15T10:47:55;-21750.44;;;22.52;29.97
7337;BME280;54510;42.016;23.098;2023-04-15T10:50:21;-21759.75;;;22.87;29.78
7337;BME280;54510;42.016;23.098;2023-04-15T10:52:49;-21766.16;;;23.10;29.35
7337;BME280;54510;42.016;23.098;2023-04-15T10:55:18;-21764.13;;;23.03;29.76
7337;BME280;54510;42.016;23.098;2023-04-15T10:57:43;-21761.53;;;22.93;29.32
7337;BME280;54510;42.016;23.098;2023-04-15T11:02:38;-21767.53;;;23.15;29.04
7337;BME280;54510;42.016;23.098;2023-04-15T11:05:04;-21766.84;;;23.13;27.38
7337;BME280;54510;42.016;23.098;2023-04-15T11:10:01;-21775.31;;;23.44;28.24
7337;BME280;54510;42.016;23.098;2023-04-15T11:12:33;-21775.16;;;23.44;27.70
7337;BME280;54510;42.016;23.098;2023-04-15T11:15:22;-21777.91;;;23.54;27.53
7337;BME280;54510;42.016;23.098;2023-04-15T11:17:46;-21781.72;;;23.68;27.28
7337;BME280;54510;42.016;23.098;2023-04-15T11:20:13;-21783.09;;;23.73;26.92
7337;BME280;54510;42.016;23.098;2023-04-15T11:22:45;-21781.31;;;23.67;26.29
7337;BME280;54510;42.016;23.098;2023-04-15T11:25:20;-21776.53;;;23.49;26.91
7337;BME280;54510;42.016;23.098;2023-04-15T11:27:45;-21790.03;;;23.99;25.43
7337;BME280;54510;42.016;23.098;2023-04-15T11:30:18;-21800.28;;;24.37;24.60
7337;BME280;54510;42.016;23.098;2023-04-15T11:32:44;-21790.19;;;23.99;24.62
7337;BME280;54510;42.016;23.098;2023-04-15T11:35:09;-21780.78;;;23.65;24.74
7337;BME280;54510;42.016;23.098;2023-04-15T11:37:34;-21788.81;;;23.94;24.33
7337;BME280;54510;42.016;23.098;2023-04-15T11:40:01;-21784.31;;;23.78;24.19
7337;BME280;54510;42.016;23.098;2023-04-15T11:42:26;-21775.84;;;23.46;24.73
7337;BME280;54510;42.016;23.098;2023-04-15T11:45:04;-21776.81;;;23.50;25.32
7337;BME280;54510;42.016;23.098;2023-04-15T11:47:30;-21775.72;;;23.46;25.14
7337;BME280;54510;42.016;23.098;2023-04-15T11:49:55;-21776.94;;;23.50;26.39
7337;BME280;54510;42.016;23.098;2023-04-15T11:52:21;-21791.41;;;24.04;24.78
7337;BME280;54510;42.016;23.098;2023-04-15T11:54:46;-21777.22;;;23.51;25.75
7337;BME280;54510;42.016;23.098;2023-04-15T11:57:12;-21781.03;;;23.66;25.42
7337;BME280;54510;42.016;23.098;2023-04-15T11:59:41;-21782.81;;;23.72;25.37
7337;BME280;54510;42.016;23.098;2023-04-15T12:02:12;-21792.91;;;24.10;25.28
7337;BME280;54510;42.016;23.098;2023-04-15T12:04:38;-21783.50;;;23.75;26.19
7337;BME280;54510;42.016;23.098;2023-04-15T12:07:04;-21776.81;;;23.50;26.12
7337;BME280;54510;42.016;23.098;2023-04-15T12:09:29;-21777.38;;;23.52;25.75
7337;BME280;54510;42.016;23.098;2023-04-15T12:11:56;-21778.44;;;23.56;25.96
7337;BME280;54510;42.016;23.098;2023-04-15T12:14:25;-21770.25;;;23.26;25.87
7337;BME280;54510;42.016;23.098;2023-04-15T12:16:58;-21782.28;;;23.70;26.31
7337;BME280;54510;42.016;23.098;2023-04-15T12:19:25;-21784.47;;;23.78;26.59
7337;BME280;54510;42.016;23.098;2023-04-15T12:21:51;-21787.19;;;23.88;27.24
7337;BME280;54510;42.016;23.098;2023-04-15T12:24:19;-21778.31;;;23.55;26.92
7337;BME280;54510;42.016;23.098;2023-04-15T12:26:46;-21774.09;;;23.40;27.44
7337;BME280;54510;42.016;23.098;2023-04-15T12:29:12;-21780.38;;;23.63;26.81
7337;BME280;54510;42.016;23.098;2023-04-15T12:31:51;-21781.31;;;23.67;28.07
7337;BME280;54510;42.016;23.098;2023-04-15T12:34:17;-21792.63;;;24.09;26.93
7337;BME280;54510;42.016;23.098;2023-04-15T12:36:42;-21791.53;;;24.05;27.30
7337;BME280;54510;42.016;23.098;2023-04-15T12:39:08;-21791.00;;;24.02;27.28
7337;BME280;54510;42.016;23.098;2023-04-15T12:41:33;-21791.81;;;24.06;26.83
7337;BME280;54510;42.016;23.098;2023-04-15T12:43:58;-21801.50;;;24.42;26.94
7337;BME280;54510;42.016;23.098;2023-04-15T12:46:24;-21804.63;;;24.53;26.73
7337;BME280;54510;42.016;23.098;2023-04-15T12:48:49;-21800.69;;;24.38;27.16
7337;BME280;54510;42.016;23.098;2023-04-15T12:51:16;-21797.00;;;24.25;27.49
7337;BME280;54510;42.016;23.098;2023-04-15T12:53:41;-21793.72;;;24.13;28.29
7337;BME280;54510;42.016;23.098;2023-04-15T12:56:07;-21803.13;;;24.48;27.53